sensor_id;sensor_type;location;lat;lon;timestamp;P1;durP1;ratioP1;P2;durP2;ratioP2
75044;SDS011;63614;56.026;35.960;2023-03-01T00:00:54;3.28;;;1.17;;
75044;SDS011;63614;56.026;35.960;2023-03-01T00:03:28;2.63;;;1.08;;
75044;SDS011;63614;56.026;35.960;2023-03-01T00:05:54;3.08;;;1.42;;
75044;SDS011;63614;56.026;35.960;2023-03-01T00:08:19;7.10;;;1.55;;
75044;SDS011;63614;56.026;35.960;2023-03-01T00:10:45;5.40;;;1.10;;
75044;SDS011;63614;56.026;35.960;2023-03-01T00:13:11;3.85;;;1.25;;
75044;SDS011;63614;56.026;35.960;2023-03-01T00:15:38;2.55;;;1.17;;
75044;SDS011;63614;56.026;35.960;2023-03-01T00:18:05;4.00;;;1.40;;
75044;SDS011;63614;56.026;35.960;2023-03-01T00:20:31;2.78;;;1.15;;
75044;SDS011;63614;56.026;35.960;2023-03-01T00:22:57;3.95;;;1.23;;
75044;SDS011;63614;56.026;35.960;2023-03-01T00:25:23;1.95;;;1.00;;
75044;SDS011;63614;56.026;35.960;2023-03-01T00:27:49;3.03;;;1.05;;
75044;SDS011;63614;56.026;35.960;2023-03-01T00:30:15;5.90;;;1.48;;
75044;SDS011;63614;56.026;35.960;2023-03-01T00:32:41;2.75;;;1.08;;
75044;SDS011;63614;56.026;35.960;2023-03-01T00:35:07;9.98;;;1.65;;
75044;SDS011;63614;56.026;35.960;2023-03-01T00:37:33;2.42;;;1.25;;
75044;SDS011;63614;56.026;35.960;2023-03-01T00:39:59;3.40;;;1.20;;
75044;SDS011;63614;56.026;35.960;2023-03-01T00:42:25;2.72;;;1.00;;
75044;SDS011;63614;56.026;35.960;2023-03-01T00:44:50;4.22;;;1.48;;
75044;SDS011;63614;56.026;35.960;2023-03-01T00:47:16;3.40;;;1.25;;
75044;SDS011;63614;56.026;35.960;2023-03-01T00:49:42;3.40;;;1.17;;
75044;SDS011;63614;56.026;35.960;2023-03-01T00:52:08;6.07;;;1.63;;
75044;SDS011;63614;56.026;35.960;2023-03-01T00:54:34;7.07;;;1.88;;
75044;SDS011;63614;56.026;35.960;2023-03-01T00:57:00;2.13;;;1.17;;
75044;SDS011;63614;56.026;35.960;2023-03-01T00:59:25;3.80;;;1.40;;
75044;SDS011;63614;56.026;35.960;2023-03-01T01:01:51;3.58;;;1.02;;
75044;SDS011;63614;56.026;35.960;2023-03-01T01:04:17;4.07;;;1.42;;
75044;SDS011;63614;56.026;35.960;2023-03-01T01:06:44;2.95;;;1.10;;
75044;SDS011;63614;56.026;35.960;2023-03-01T01:09:12;4.30;;;1.40;;
75044;SDS011;63614;56.026;35.960;2023-03-01T01:11:46;5.82;;;1.38;;
75044;SDS011;63614;56.026;35.960;2023-03-01T01:14:13;2.60;;;1.17;;
75044;SDS011;63614;56.026;35.960;2023-03-01T01:16:40;4.30;;;1.40;;
75044;SDS011;63614;56.026;35.960;2023-03-01T01:19:06;4.10;;;1.30;;
75044;SDS011;63614;56.026;35.960;2023-03-01T01:21:32;2.92;;;1.20;;
75044;SDS011;63614;56.026;35.960;2023-03-01T01:23:58;3.47;;;1.42;;
75044;SDS011;63614;56.026;35.960;2023-03-01T01:26:26;4.10;;;1.58;;
75044;SDS011;63614;56.026;35.960;2023-03-01T01:28:53;4.78;;;1.67;;
75044;SDS011;63614;56.026;35.960;2023-03-01T01:31:19;3.33;;;1.35;;
75044;SDS011;63614;56.026;35.960;2023-03-01T01:33:49;2.05;;;1.30;;
75044;SDS011;63614;56.026;35.960;2023-03-01T01:36:15;4.65;;;1.30;;
75044;SDS011;63614;56.026;35.960;2023-03-01T01:38:41;4.38;;;1.40;;
75044;SDS011;63614;56.026;35.960;2023-03-01T01:41:10;7.90;;;1.60;;
75044;SDS011;63614;56.026;35.960;2023-03-01T01:43:39;4.32;;;1.33;;
75044;SDS011;63614;56.026;35.960;2023-03-01T04:42:47;4.82;;;1.80;;
75044;SDS011;63614;56.026;35.960;2023-03-01T04:45:13;4.50;;;1.80;;
75044;SDS011;63614;56.026;35.960;2023-03-01T04:47:39;3.55;;;1.63;;
75044;SDS011;63614;56.026;35.960;2023-03-01T04:52:32;5.90;;;1.55;;
75044;SDS011;63614;56.026;35.960;2023-03-01T04:54:58;4.32;;;1.58;;
75044;SDS011;63614;56.026;35.960;2023-03-01T04:57:23;4.00;;;1.17;;
75044;SDS011;63614;56.026;35.960;2023-03-01T04:59:49;4.20;;;1.65;;
75044;SDS011;63614;56.026;35.960;2023-03-01T05:02:15;6.80;;;1.83;;
75044;SDS011;63614;56.026;35.960;2023-03-01T05:04:41;2.80;;;1.50;;
75044;SDS011;63614;56.026;35.960;2023-03-01T05:07:06;4.95;;;2.03;;
75044;SDS011;63614;56.026;35.960;2023-03-01T05:09:32;5.00;;;1.40;;
75044;SDS011;63614;56.026;35.960;2023-03-01T05:11:58;3.78;;;1.65;;
75044;SDS011;63614;56.026;35.960;2023-03-01T05:14:24;4.32;;;1.60;;
75044;SDS011;63614;56.026;35.960;2023-03-01T05:16:49;6.18;;;1.70;;
75044;SDS011;63614;56.026;35.960;2023-03-01T05:19:15;8.45;;;1.83;;
75044;SDS011;63614;56.026;35.960;2023-03-01T05:21:41;3.10;;;1.52;;
75044;SDS011;63614;56.026;35.960;2023-03-01T05:24:27;4.80;;;1.65;;
75044;SDS011;63614;56.026;35.960;2023-03-01T05:26:54;9.02;;;1.90;;
75044;SDS011;63614;56.026;35.960;2023-03-01T05:29:21;5.43;;;1.40;;
75044;SDS011;63614;56.026;35.960;2023-03-01T05:31:51;4.35;;;1.73;;
75044;SDS011;63614;56.026;35.960;2023-03-01T05:34:28;3.15;;;1.63;;
75044;SDS011;63614;56.026;35.960;2023-03-01T05:36:59;3.10;;;1.48;;
75044;SDS011;63614;56.026;35.960;2023-03-01T05:39:25;3.40;;;1.35;;
75044;SDS011;63614;56.026;35.960;2023-03-01T05:41:56;3.58;;;1.40;;
75044;SDS011;63614;56.026;35.960;2023-03-01T05:44:24;4.22;;;1.40;;
75044;SDS011;63614;56.026;35.960;2023-03-01T05:46:50;4.15;;;1.58;;
75044;SDS011;63614;56.026;35.960;2023-03-01T05:49:17;2.20;;;1.40;;
75044;SDS011;63614;56.026;35.960;2023-03-01T05:51:47;4.00;;;1.75;;
75044;SDS011;63614;56.026;35.960;2023-03-01T05:54:14;5.55;;;1.88;;
75044;SDS011;63614;56.026;35.960;2023-03-01T05:56:40;5.60;;;1.60;;
75044;SDS011;63614;56.026;35.960;2023-03-01T05:59:06;8.32;;;2.03;;
75044;SDS011;63614;56.026;35.960;2023-03-01T06:01:32;8.75;;;1.70;;
75044;SDS011;63614;56.026;35.960;2023-03-01T06:03:59;5.82;;;2.10;;
75044;SDS011;63614;56.026;35.960;2023-03-01T06:06:25;4.70;;;1.60;;
75044;SDS011;63614;56.026;35.960;2023-03-01T06:08:52;9.57;;;1.90;;
75044;SDS011;63614;56.026;35.960;2023-03-01T06:11:18;4.07;;;1.50;;
75044;SDS011;63614;56.026;35.960;2023-03-01T06:13:45;3.20;;;1.45;;
75044;SDS011;63614;56.026;35.960;2023-03-01T06:16:11;2.85;;;1.73;;
75044;SDS011;63614;56.026;35.960;2023-03-01T06:18:38;5.57;;;1.65;;
75044;SDS011;63614;56.026;35.960;2023-03-01T06:21:05;4.05;;;1.40;;
75044;SDS011;63614;56.026;35.960;2023-03-01T06:23:32;5.65;;;1.98;;
75044;SDS011;63614;56.026;35.960;2023-03-01T06:25:58;3.63;;;1.30;;
75044;SDS011;63614;56.026;35.960;2023-03-01T06:28:24;3.65;;;1.63;;
75044;SDS011;63614;56.026;35.960;2023-03-01T06:30:50;4.07;;;1.50;;
75044;SDS011;63614;56.026;35.960;2023-03-01T06:33:17;7.35;;;2.00;;
75044;SDS011;63614;56.026;35.960;2023-03-01T06:35:45;3.88;;;1.50;;
75044;SDS011;63614;56.026;35.960;2023-03-01T06:38:12;6.00;;;1.88;;
75044;SDS011;63614;56.026;35.960;2023-03-01T06:40:40;5.85;;;1.55;;
75044;SDS011;63614;56.026;35.960;2023-03-01T06:43:06;5.55;;;1.92;;
75044;SDS011;63614;56.026;35.960;2023-03-01T06:45:32;10.13;;;1.70;;
75044;SDS011;63614;56.026;35.960;2023-03-01T06:48:05;5.57;;;1.65;;
75044;SDS011;63614;56.026;35.960;2023-03-01T06:50:31;3.20;;;1.35;;
75044;SDS011;63614;56.026;35.960;2023-03-01T06:52:58;3.65;;;1.63;;
75044;SDS011;63614;56.026;35.960;2023-03-01T06:55:24;5.03;;;1.90;;
75044;SDS011;63614;56.026;35.960;2023-03-01T06:57:57;5.28;;;2.05;;
75044;SDS011;63614;56.026;35.960;2023-03-01T07:00:24;11.07;;;1.80;;
75044;SDS011;63614;56.026;35.960;2023-03-01T07:02:51;6.10;;;1.70;;
75044;SDS011;63614;56.026;35.960;2023-03-01T07:05:17;5.63;;;1.80;;
75044;SDS011;63614;56.026;35.960;2023-03-01T07:07:43;4.80;;;1.75;;
75044;SDS011;63614;56.026;35.960;2023-03-01T07:10:09;3.80;;;1.48;;
75044;SDS011;63614;56.026;35.960;2023-03-01T07:12:35;6.45;;;1.63;;
75044;SDS011;63614;56.026;35.960;2023-03-01T07:15:02;7.38;;;2.10;;
75044;SDS011;63614;56.026;35.960;2023-03-01T07:17:29;4.47;;;1.85;;
75044;SDS011;63614;56.026;35.960;2023-03-01T07:19:56;3.22;;;1.55;;
75044;SDS011;63614;56.026;35.960;2023-03-01T07:22:21;4.97;;;1.90;;
75044;SDS011;63614;56.026;35.960;2023-03-01T07:24:47;6.50;;;1.80;;
75044;SDS011;63614;56.026;35.960;2023-03-01T07:27:13;8.25;;;1.63;;
75044;SDS011;63614;56.026;35.960;2023-03-01T07:29:40;7.03;;;1.98;;
75044;SDS011;63614;56.026;35.960;2023-03-01T07:32:06;5.53;;;2.10;;
75044;SDS011;63614;56.026;35.960;2023-03-01T07:34:32;7.30;;;1.92;;
75044;SDS011;63614;56.026;35.960;2023-03-01T07:36:58;7.13;;;1.95;;
75044;SDS011;63614;56.026;35.960;2023-03-01T07:39:23;5.22;;;1.80;;
75044;SDS011;63614;56.026;35.960;2023-03-01T07:41:50;9.50;;;2.42;;
75044;SDS011;63614;56.026;35.960;2023-03-01T07:44:20;8.00;;;2.00;;
75044;SDS011;63614;56.026;35.960;2023-03-01T07:46:46;6.40;;;2.28;;
75044;SDS011;63614;56.026;35.960;2023-03-01T07:49:12;4.57;;;1.70;;
75044;SDS011;63614;56.026;35.960;2023-03-01T07:51:38;6.45;;;2.20;;
75044;SDS011;63614;56.026;35.960;2023-03-01T07:54:04;5.72;;;1.90;;
75044;SDS011;63614;56.026;35.960;2023-03-01T07:56:30;7.15;;;1.90;;
75044;SDS011;63614;56.026;35.960;2023-03-01T07:58:56;7.82;;;2.97;;
75044;SDS011;63614;56.026;35.960;2023-03-01T08:01:24;6.70;;;1.80;;
75044;SDS011;63614;56.026;35.960;2023-03-01T08:03:50;6.40;;;1.85;;
75044;SDS011;63614;56.026;35.960;2023-03-01T08:06:16;5.65;;;2.08;;
75044;SDS011;63614;56.026;35.960;2023-03-01T08:08:43;3.92;;;2.03;;
75044;SDS011;63614;56.026;35.960;2023-03-01T08:11:10;5.03;;;1.80;;
75044;SDS011;63614;56.026;35.960;2023-03-01T08:13:37;5.90;;;1.90;;
75044;SDS011;63614;56.026;35.960;2023-03-01T08:16:03;6.65;;;2.00;;
75044;SDS011;63614;56.026;35.960;2023-03-01T08:21:01;8.38;;;2.00;;
75044;SDS011;63614;56.026;35.960;2023-03-01T08:23:36;6.53;;;1.73;;
75044;SDS011;63614;56.026;35.960;2023-03-01T08:26:06;3.33;;;1.63;;
75044;SDS011;63614;56.026;35.960;2023-03-01T08:28:38;8.40;;;1.65;;
75044;SDS011;63614;56.026;35.960;2023-03-01T08:31:24;8.10;;;2.50;;
75044;SDS011;63614;56.026;35.960;2023-03-01T08:33:54;4.88;;;1.75;;
75044;SDS011;63614;56.026;35.960;2023-03-01T08:36:22;7.00;;;2.45;;
75044;SDS011;63614;56.026;35.960;2023-03-01T08:38:50;5.05;;;1.90;;
75044;SDS011;63614;56.026;35.960;2023-03-01T08:41:16;6.38;;;1.77;;
75044;SDS011;63614;56.026;35.960;2023-03-01T08:43:42;5.72;;;2.10;;
75044;SDS011;63614;56.026;35.960;2023-03-01T08:46:08;5.97;;;1.58;;
75044;SDS011;63614;56.026;35.960;2023-03-01T08:48:34;5.00;;;1.90;;
75044;SDS011;63614;56.026;35.960;2023-03-01T08:51:10;7.88;;;2.03;;
75044;SDS011;63614;56.026;35.960;2023-03-01T08:53:40;3.15;;;1.58;;
75044;SDS011;63614;56.026;35.960;2023-03-01T08:56:07;5.35;;;1.70;;
75044;SDS011;63614;56.026;35.960;2023-03-01T08:58:33;5.50;;;1.95;;
75044;SDS011;63614;56.026;35.960;2023-03-01T09:00:59;6.93;;;2.05;;
75044;SDS011;63614;56.026;35.960;2023-03-01T09:03:25;9.07;;;1.95;;
75044;SDS011;63614;56.026;35.960;2023-03-01T09:05:52;3.60;;;1.63;;
75044;SDS011;63614;56.026;35.960;2023-03-01T09:08:19;3.75;;;1.58;;
75044;SDS011;63614;56.026;35.960;2023-03-01T09:10:45;8.68;;;2.25;;
75044;SDS011;63614;56.026;35.960;2023-03-01T09:13:11;6.60;;;1.70;;
75044;SDS011;63614;56.026;35.960;2023-03-01T09:15:37;6.88;;;2.15;;
75044;SDS011;63614;56.026;35.960;2023-03-01T09:18:04;5.75;;;1.70;;
75044;SDS011;63614;56.026;35.960;2023-03-01T09:20:30;4.53;;;1.80;;
75044;SDS011;63614;56.026;35.960;2023-03-01T09:22:57;4.03;;;1.90;;
75044;SDS011;63614;56.026;35.960;2023-03-01T09:25:23;8.13;;;1.90;;
75044;SDS011;63614;56.026;35.960;2023-03-01T09:27:53;6.00;;;1.75;;
75044;SDS011;63614;56.026;35.960;2023-03-01T09:30:20;7.18;;;1.60;;
75044;SDS011;63614;56.026;35.960;2023-03-01T09:32:46;3.55;;;1.50;;
75044;SDS011;63614;56.026;35.960;2023-03-01T09:35:12;8.30;;;1.77;;
75044;SDS011;63614;56.026;35.960;2023-03-01T09:37:38;2.92;;;1.60;;
75044;SDS011;63614;56.026;35.960;2023-03-01T09:40:11;3.03;;;1.40;;
75044;SDS011;63614;56.026;35.960;2023-03-01T09:42:45;5.70;;;1.60;;
75044;SDS011;63614;56.026;35.960;2023-03-01T09:45:34;5.00;;;1.70;;
75044;SDS011;63614;56.026;35.960;2023-03-01T09:48:03;3.50;;;1.42;;
75044;SDS011;63614;56.026;35.960;2023-03-01T09:50:33;7.93;;;1.80;;
75044;SDS011;63614;56.026;35.960;2023-03-01T09:53:12;4.95;;;1.73;;
75044;SDS011;63614;56.026;35.960;2023-03-01T10:00:59;6.18;;;2.00;;
75044;SDS011;63614;56.026;35.960;2023-03-01T10:03:34;4.35;;;1.77;;
75044;SDS011;63614;56.026;35.960;2023-03-01T10:06:12;8.05;;;1.80;;
75044;SDS011;63614;56.026;35.960;2023-03-01T10:09:18;5.05;;;1.50;;
75044;SDS011;63614;56.026;35.960;2023-03-01T10:11:41;4.32;;;1.40;;
75044;SDS011;63614;56.026;35.960;2023-03-01T10:16:58;5.47;;;1.73;;
75044;SDS011;63614;56.026;35.960;2023-03-01T10:19:41;6.68;;;1.50;;
75044;SDS011;63614;56.026;35.960;2023-03-01T10:22:13;6.15;;;1.70;;
75044;SDS011;63614;56.026;35.960;2023-03-01T10:24:43;7.07;;;1.92;;
75044;SDS011;63614;56.026;35.960;2023-03-01T10:29:44;4.68;;;1.60;;
75044;SDS011;63614;56.026;35.960;2023-03-01T10:32:18;4.80;;;1.63;;
75044;SDS011;63614;56.026;35.960;2023-03-01T10:34:44;5.32;;;1.50;;
75044;SDS011;63614;56.026;35.960;2023-03-01T10:37:14;2.75;;;1.20;;
75044;SDS011;63614;56.026;35.960;2023-03-01T10:42:39;3.83;;;1.23;;
75044;SDS011;63614;56.026;35.960;2023-03-01T10:48:14;3.95;;;1.83;;
75044;SDS011;63614;56.026;35.960;2023-03-01T10:50:46;3.72;;;1.58;;
75044;SDS011;63614;56.026;35.960;2023-03-01T10:53:21;5.95;;;1.58;;
75044;SDS011;63614;56.026;35.960;2023-03-01T10:55:56;6.68;;;1.80;;
75044;SDS011;63614;56.026;35.960;2023-03-01T10:58:24;4.68;;;1.75;;
75044;SDS011;63614;56.026;35.960;2023-03-01T11:00:55;5.25;;;1.50;;
75044;SDS011;63614;56.026;35.960;2023-03-01T11:03:23;5.88;;;1.90;;
75044;SDS011;63614;56.026;35.960;2023-03-01T11:06:33;8.10;;;1.58;;
75044;SDS011;63614;56.026;35.960;2023-03-01T11:08:44;5.88;;;2.00;;
75044;SDS011;63614;56.026;35.960;2023-03-01T11:16:38;3.08;;;1.13;;
75044;SDS011;63614;56.026;35.960;2023-03-01T11:21:42;3.13;;;1.25;;
75044;SDS011;63614;56.026;35.960;2023-03-01T11:24:17;3.40;;;1.13;;
75044;SDS011;63614;56.026;35.960;2023-03-01T11:26:46;6.53;;;1.55;;
75044;SDS011;63614;56.026;35.960;2023-03-01T11:29:37;2.10;;;1.10;;
75044;SDS011;63614;56.026;35.960;2023-03-01T11:32:08;3.67;;;1.40;;
75044;SDS011;63614;56.026;35.960;2023-03-01T11:37:32;3.45;;;1.55;;
75044;SDS011;63614;56.026;35.960;2023-03-01T11:40:10;6.07;;;1.70;;
75044;SDS011;63614;56.026;35.960;2023-03-01T11:45:22;3.90;;;1.90;;
75044;SDS011;63614;56.026;35.960;2023-03-01T11:53:18;7.25;;;1.90;;
75044;SDS011;63614;56.026;35.960;2023-03-01T12:09:21;8.50;;;3.28;;
75044;SDS011;63614;56.026;35.960;2023-03-01T12:22:52;4.90;;;1.30;;
75044;SDS011;63614;56.026;35.960;2023-03-01T12:37:21;4.03;;;1.40;;
75044;SDS011;63614;56.026;35.960;2023-03-01T12:42:54;4.13;;;1.42;;
75044;SDS011;63614;56.026;35.960;2023-03-01T12:48:24;4.07;;;1.30;;
75044;SDS011;63614;56.026;35.960;2023-03-01T12:50:53;4.63;;;1.30;;
75044;SDS011;63614;56.026;35.960;2023-03-01T12:53:41;3.30;;;1.40;;
75044;SDS011;63614;56.026;35.960;2023-03-01T12:56:14;4.00;;;1.55;;
75044;SDS011;63614;56.026;35.960;2023-03-01T12:59:01;4.78;;;1.38;;
75044;SDS011;63614;56.026;35.960;2023-03-01T13:17:52;3.38;;;1.35;;
75044;SDS011;63614;56.026;35.960;2023-03-01T13:23:24;2.92;;;1.50;;
75044;SDS011;63614;56.026;35.960;2023-03-01T13:28:41;3.67;;;1.48;;
75044;SDS011;63614;56.026;35.960;2023-03-01T13:33:46;4.28;;;1.13;;
75044;SDS011;63614;56.026;35.960;2023-03-01T13:44:54;5.25;;;1.50;;
75044;SDS011;63614;56.026;35.960;2023-03-01T13:49:50;4.25;;;1.58;;
75044;SDS011;63614;56.026;35.960;2023-03-01T13:57:44;3.70;;;1.45;;
75044;SDS011;63614;56.026;35.960;2023-03-01T14:00:39;5.47;;;1.88;;
75044;SDS011;63614;56.026;35.960;2023-03-01T14:05:36;6.82;;;2.00;;
75044;SDS011;63614;56.026;35.960;2023-03-01T14:08:03;4.95;;;2.42;;
75044;SDS011;63614;56.026;35.960;2023-03-01T14:10:44;2.50;;;1.35;;
75044;SDS011;63614;56.026;35.960;2023-03-01T14:19:28;6.38;;;1.42;;
75044;SDS011;63614;56.026;35.960;2023-03-01T14:22:38;4.35;;;1.20;;
75044;SDS011;63614;56.026;35.960;2023-03-01T14:27:14;4.70;;;1.77;;
75044;SDS011;63614;56.026;35.960;2023-03-01T14:29:41;6.57;;;1.27;;
75044;SDS011;63614;56.026;35.960;2023-03-01T14:32:12;3.92;;;1.42;;
75044;SDS011;63614;56.026;35.960;2023-03-01T14:34:49;7.65;;;1.88;;
75044;SDS011;63614;56.026;35.960;2023-03-01T14:39:51;6.10;;;1.40;;
75044;SDS011;63614;56.026;35.960;2023-03-01T14:42:18;6.77;;;1.50;;
75044;SDS011;63614;56.026;35.960;2023-03-01T14:44:46;7.03;;;1.75;;
75044;SDS011;63614;56.026;35.960;2023-03-01T14:47:16;4.63;;;1.33;;
75044;SDS011;63614;56.026;35.960;2023-03-01T14:49:52;5.63;;;1.52;;
75044;SDS011;63614;56.026;35.960;2023-03-01T14:52:23;5.13;;;1.77;;
75044;SDS011;63614;56.026;35.960;2023-03-01T14:54:56;5.43;;;1.75;;
75044;SDS011;63614;56.026;35.960;2023-03-01T14:57:23;6.88;;;1.55;;
75044;SDS011;63614;56.026;35.960;2023-03-01T14:59:51;5.28;;;2.00;;
75044;SDS011;63614;56.026;35.960;2023-03-01T15:02:23;6.45;;;1.52;;
75044;SDS011;63614;56.026;35.960;2023-03-01T15:05:01;3.63;;;1.70;;
75044;SDS011;63614;56.026;35.960;2023-03-01T15:07:31;5.35;;;1.50;;
75044;SDS011;63614;56.026;35.960;2023-03-01T15:09:59;3.95;;;1.42;;
75044;SDS011;63614;56.026;35.960;2023-03-01T15:14:52;7.35;;;1.67;;
75044;SDS011;63614;56.026;35.960;2023-03-01T15:17:28;8.63;;;2.30;;
75044;SDS011;63614;56.026;35.960;2023-03-01T15:22:25;7.80;;;1.73;;
75044;SDS011;63614;56.026;35.960;2023-03-01T15:27:18;5.35;;;2.22;;
75044;SDS011;63614;56.026;35.960;2023-03-01T15:29:50;9.02;;;2.58;;
75044;SDS011;63614;56.026;35.960;2023-03-01T15:32:33;7.18;;;2.70;;
75044;SDS011;63614;56.026;35.960;2023-03-01T15:38:18;6.03;;;2.08;;
75044;SDS011;63614;56.026;35.960;2023-03-01T15:41:02;8.55;;;2.20;;
75044;SDS011;63614;56.026;35.960;2023-03-01T15:44:14;7.65;;;2.47;;
75044;SDS011;63614;56.026;35.960;2023-03-01T15:46:32;6.45;;;2.25;;
75044;SDS011;63614;56.026;35.960;2023-03-01T15:49:03;3.70;;;1.85;;
75044;SDS011;63614;56.026;35.960;2023-03-01T15:51:44;6.03;;;1.80;;
75044;SDS011;63614;56.026;35.960;2023-03-01T15:54:18;4.72;;;2.15;;
75044;SDS011;63614;56.026;35.960;2023-03-01T15:56:46;6.22;;;1.50;;
75044;SDS011;63614;56.026;35.960;2023-03-01T15:59:12;4.57;;;1.30;;
75044;SDS011;63614;56.026;35.960;2023-03-01T16:01:42;7.90;;;1.43;;
75044;SDS011;63614;56.026;35.960;2023-03-01T16:04:12;2.30;;;1.20;;
75044;SDS011;63614;56.026;35.960;2023-03-01T16:06:49;5.78;;;1.42;;
75044;SDS011;63614;56.026;35.960;2023-03-01T16:09:23;6.90;;;2.00;;
75044;SDS011;63614;56.026;35.960;2023-03-01T16:11:50;11.23;;;2.25;;
75044;SDS011;63614;56.026;35.960;2023-03-01T16:16:43;4.18;;;1.45;;
75044;SDS011;63614;56.026;35.960;2023-03-01T16:19:10;3.72;;;1.63;;
75044;SDS011;63614;56.026;35.960;2023-03-01T16:21:37;6.13;;;1.90;;
75044;SDS011;63614;56.026;35.960;2023-03-01T16:24:04;4.00;;;1.58;;
75044;SDS011;63614;56.026;35.960;2023-03-01T16:26:30;5.07;;;1.67;;
75044;SDS011;63614;56.026;35.960;2023-03-01T16:28:56;3.38;;;1.50;;
75044;SDS011;63614;56.026;35.960;2023-03-01T16:31:23;4.10;;;1.58;;
75044;SDS011;63614;56.026;35.960;2023-03-01T16:33:56;7.82;;;2.05;;
75044;SDS011;63614;56.026;35.960;2023-03-01T16:36:23;5.10;;;1.92;;
75044;SDS011;63614;56.026;35.960;2023-03-01T16:38:51;7.53;;;2.10;;
75044;SDS011;63614;56.026;35.960;2023-03-01T16:41:18;9.02;;;2.38;;
75044;SDS011;63614;56.026;35.960;2023-03-01T16:43:45;6.15;;;1.77;;
75044;SDS011;63614;56.026;35.960;2023-03-01T16:46:13;5.55;;;2.10;;
75044;SDS011;63614;56.026;35.960;2023-03-01T16:48:44;5.50;;;1.90;;
75044;SDS011;63614;56.026;35.960;2023-03-01T16:51:11;5.70;;;2.35;;
75044;SDS011;63614;56.026;35.960;2023-03-01T16:53:37;7.97;;;2.47;;
75044;SDS011;63614;56.026;35.960;2023-03-01T16:56:04;7.30;;;2.17;;
75044;SDS011;63614;56.026;35.960;2023-03-01T16:58:31;8.02;;;2.70;;
75044;SDS011;63614;56.026;35.960;2023-03-01T17:01:01;4.60;;;2.30;;
75044;SDS011;63614;56.026;35.960;2023-03-01T17:03:40;5.00;;;1.73;;
75044;SDS011;63614;56.026;35.960;2023-03-01T17:06:08;3.97;;;1.65;;
75044;SDS011;63614;56.026;35.960;2023-03-01T17:08:35;3.95;;;1.65;;
75044;SDS011;63614;56.026;35.960;2023-03-01T17:11:06;6.78;;;2.05;;
75044;SDS011;63614;56.026;35.960;2023-03-01T17:13:33;4.15;;;1.70;;
75044;SDS011;63614;56.026;35.960;2023-03-01T17:16:01;5.67;;;1.60;;
75044;SDS011;63614;56.026;35.960;2023-03-01T17:18:31;7.38;;;2.03;;
75044;SDS011;63614;56.026;35.960;2023-03-01T17:20:56;7.03;;;1.95;;
75044;SDS011;63614;56.026;35.960;2023-03-01T17:23:22;5.57;;;1.67;;
75044;SDS011;63614;56.026;35.960;2023-03-01T17:25:48;5.75;;;1.52;;
75044;SDS011;63614;56.026;35.960;2023-03-01T17:28:17;5.43;;;1.83;;
75044;SDS011;63614;56.026;35.960;2023-03-01T17:30:44;3.22;;;1.60;;
75044;SDS011;63614;56.026;35.960;2023-03-01T17:33:12;5.00;;;2.00;;
75044;SDS011;63614;56.026;35.960;2023-03-01T17:35:38;4.88;;;1.70;;
75044;SDS011;63614;56.026;35.960;2023-03-01T17:38:04;7.00;;;1.85;;
75044;SDS011;63614;56.026;35.960;2023-03-01T17:40:31;4.13;;;1.60;;
75044;SDS011;63614;56.026;35.960;2023-03-01T17:42:57;5.50;;;1.50;;
75044;SDS011;63614;56.026;35.960;2023-03-01T17:45:24;6.47;;;1.38;;
75044;SDS011;63614;56.026;35.960;2023-03-01T17:47:49;8.02;;;1.95;;
75044;SDS011;63614;56.026;35.960;2023-03-01T17:50:15;6.05;;;1.77;;
75044;SDS011;63614;56.026;35.960;2023-03-01T17:52:42;4.93;;;1.60;;
75044;SDS011;63614;56.026;35.960;2023-03-01T17:55:08;7.55;;;1.90;;
75044;SDS011;63614;56.026;35.960;2023-03-01T17:57:37;4.18;;;1.55;;
75044;SDS011;63614;56.026;35.960;2023-03-01T18:00:05;5.57;;;1.90;;
75044;SDS011;63614;56.026;35.960;2023-03-01T18:02:37;4.72;;;2.22;;
75044;SDS011;63614;56.026;35.960;2023-03-01T18:05:02;3.67;;;1.60;;
75044;SDS011;63614;56.026;35.960;2023-03-01T18:07:29;3.45;;;1.50;;
75044;SDS011;63614;56.026;35.960;2023-03-01T18:09:54;12.02;;;2.10;;
75044;SDS011;63614;56.026;35.960;2023-03-01T18:12:20;3.78;;;1.55;;
75044;SDS011;63614;56.026;35.960;2023-03-01T18:14:47;5.95;;;1.55;;
75044;SDS011;63614;56.026;35.960;2023-03-01T18:17:21;3.35;;;1.50;;
75044;SDS011;63614;56.026;35.960;2023-03-01T18:19:48;4.57;;;1.50;;
75044;SDS011;63614;56.026;35.960;2023-03-01T18:22:14;7.38;;;1.55;;
75044;SDS011;63614;56.026;35.960;2023-03-01T18:24:40;5.63;;;1.63;;
75044;SDS011;63614;56.026;35.960;2023-03-01T18:27:06;5.72;;;2.10;;
75044;SDS011;63614;56.026;35.960;2023-03-01T18:29:35;3.05;;;1.58;;
75044;SDS011;63614;56.026;35.960;2023-03-01T18:32:02;5.03;;;1.80;;
75044;SDS011;63614;56.026;35.960;2023-03-01T18:34:28;3.97;;;1.45;;
75044;SDS011;63614;56.026;35.960;2023-03-01T18:36:54;7.85;;;1.70;;
75044;SDS011;63614;56.026;35.960;2023-03-01T18:39:22;7.82;;;2.00;;
75044;SDS011;63614;56.026;35.960;2023-03-01T18:41:49;5.13;;;1.70;;
75044;SDS011;63614;56.026;35.960;2023-03-01T18:44:15;7.00;;;1.83;;
75044;SDS011;63614;56.026;35.960;2023-03-01T18:46:41;4.18;;;1.50;;
75044;SDS011;63614;56.026;35.960;2023-03-01T18:49:11;5.28;;;1.73;;
75044;SDS011;63614;56.026;35.960;2023-03-01T18:51:38;4.53;;;1.58;;
75044;SDS011;63614;56.026;35.960;2023-03-01T18:54:05;5.00;;;1.80;;
75044;SDS011;63614;56.026;35.960;2023-03-01T18:56:31;4.35;;;1.75;;
75044;SDS011;63614;56.026;35.960;2023-03-01T18:58:58;5.75;;;1.50;;
75044;SDS011;63614;56.026;35.960;2023-03-01T19:01:28;7.15;;;1.65;;
75044;SDS011;63614;56.026;35.960;2023-03-01T19:03:55;5.28;;;1.70;;
75044;SDS011;63614;56.026;35.960;2023-03-01T19:06:22;7.10;;;1.90;;
75044;SDS011;63614;56.026;35.960;2023-03-01T19:08:51;5.53;;;2.03;;
75044;SDS011;63614;56.026;35.960;2023-03-01T19:11:17;6.47;;;1.70;;
75044;SDS011;63614;56.026;35.960;2023-03-01T19:13:43;5.25;;;1.60;;
75044;SDS011;63614;56.026;35.960;2023-03-01T19:18:37;5.43;;;1.65;;
75044;SDS011;63614;56.026;35.960;2023-03-01T19:21:05;6.63;;;1.80;;
75044;SDS011;63614;56.026;35.960;2023-03-01T19:23:32;5.25;;;1.58;;
75044;SDS011;63614;56.026;35.960;2023-03-01T19:26:10;6.93;;;2.05;;
75044;SDS011;63614;56.026;35.960;2023-03-01T19:28:39;6.90;;;1.83;;
75044;SDS011;63614;56.026;35.960;2023-03-01T19:31:06;8.80;;;2.22;;
75044;SDS011;63614;56.026;35.960;2023-03-01T19:33:34;5.20;;;1.67;;
75044;SDS011;63614;56.026;35.960;2023-03-01T19:36:01;5.13;;;1.63;;
75044;SDS011;63614;56.026;35.960;2023-03-01T19:40:54;6.25;;;2.50;;
75044;SDS011;63614;56.026;35.960;2023-03-01T19:43:21;9.90;;;2.42;;
75044;SDS011;63614;56.026;35.960;2023-03-01T19:45:51;13.52;;;3.65;;
75044;SDS011;63614;56.026;35.960;2023-03-01T19:48:18;14.05;;;3.90;;
75044;SDS011;63614;56.026;35.960;2023-03-01T19:50:44;15.02;;;3.92;;
75044;SDS011;63614;56.026;35.960;2023-03-01T19:53:10;12.48;;;3.72;;
75044;SDS011;63614;56.026;35.960;2023-03-01T19:55:37;11.67;;;3.53;;
75044;SDS011;63614;56.026;35.960;2023-03-01T19:58:03;10.18;;;2.22;;
75044;SDS011;63614;56.026;35.960;2023-03-01T20:00:31;8.93;;;2.40;;
75044;SDS011;63614;56.026;35.960;2023-03-01T20:02:57;7.40;;;2.22;;
75044;SDS011;63614;56.026;35.960;2023-03-01T20:05:23;7.00;;;2.03;;
75044;SDS011;63614;56.026;35.960;2023-03-01T20:07:49;4.93;;;1.90;;
75044;SDS011;63614;56.026;35.960;2023-03-01T20:10:15;5.18;;;2.08;;
75044;SDS011;63614;56.026;35.960;2023-03-01T20:12:42;6.80;;;1.88;;
75044;SDS011;63614;56.026;35.960;2023-03-01T20:15:08;3.63;;;1.70;;